createdAt,value
2019-03-22T00:04:35.581Z,45.03
2019-03-22T00:09:48.217Z,41.73
2019-03-22T00:15:01.534Z,42.17
2019-03-22T00:20:11.854Z,40.53
2019-03-22T00:25:21.432Z,44.67
2019-03-22T00:30:33.670Z,46.83
2019-03-22T00:35:50.030Z,43.47
2019-03-22T00:41:00.090Z,48.53
2019-03-22T00:46:16.304Z,46.63
2019-03-22T00:51:26.415Z,48.33
2019-03-22T00:56:40.191Z,44.97
2019-03-22T01:01:52.000Z,43.50
2019-03-22T01:07:06.438Z,46.13
2019-03-22T01:12:20.762Z,45.30
2019-03-22T01:17:32.046Z,45.37
2019-03-22T01:22:48.037Z,42.50
2019-03-22T01:27:58.382Z,49.10
2019-03-22T01:33:12.920Z,44.77
2019-03-22T01:38:23.629Z,42.83
2019-03-22T01:43:35.148Z,43.83
2019-03-22T01:48:47.578Z,44.17
2019-03-22T01:54:04.798Z,49.03
2019-03-22T01:59:16.187Z,46.27
2019-03-22T02:04:25.492Z,48.17
2019-03-22T02:09:39.734Z,48.67
2019-03-22T02:14:47.916Z,55.80
2019-03-22T02:19:59.318Z,58.87
2019-03-22T02:25:16.142Z,53.70
2019-03-22T02:30:33.834Z,51.57
2019-03-22T02:35:46.577Z,54.03
2019-03-22T02:40:58.421Z,51.97
2019-03-22T02:46:12.479Z,51.63
2019-03-22T02:51:27.025Z,50.63
2019-03-22T02:56:39.058Z,54.30
2019-03-22T03:01:57.834Z,48.80
2019-03-22T03:07:04.343Z,53.60
2019-03-22T03:12:14.770Z,50.60
2019-03-22T03:17:24.732Z,53.47
2019-03-22T03:22:39.215Z,51.43
2019-03-22T03:27:50.739Z,52.00
2019-03-22T03:33:03.065Z,49.93
2019-03-22T03:38:13.543Z,57.50
2019-03-22T03:43:22.187Z,56.07
2019-03-22T03:48:36.078Z,53.87
2019-03-22T03:53:47.282Z,52.17
2019-03-22T03:58:58.546Z,59.67
2019-03-22T04:04:09.700Z,60.47
2019-03-22T04:09:39.970Z,55.60
2019-03-22T04:14:54.280Z,58.93
2019-03-22T04:20:06.350Z,55.93
2019-03-22T04:25:16.734Z,58.63
2019-03-22T04:30:32.503Z,52.87
2019-03-22T04:35:48.534Z,47.20
2019-03-22T04:40:59.675Z,48.47
2019-03-22T04:46:08.661Z,58.23
2019-03-22T04:51:17.669Z,52.50
2019-03-22T04:56:27.451Z,50.10
2019-03-22T05:01:38.908Z,58.20
2019-03-22T05:06:50.399Z,51.97
2019-03-22T05:12:04.089Z,54.30
2019-03-22T05:17:15.995Z,59.07
2019-03-22T05:22:24.995Z,54.87
2019-03-22T05:27:37.544Z,51.53
2019-03-22T05:32:48.738Z,54.27
2019-03-22T05:38:01.456Z,56.13
2019-03-22T05:43:10.682Z,52.93
2019-03-22T05:48:42.407Z,55.13
2019-03-22T05:53:55.801Z,57.50
2019-03-22T05:59:05.738Z,53.67
2019-03-22T06:04:17.216Z,63.33
2019-03-22T06:09:30.062Z,55.50
2019-03-22T06:14:38.276Z,55.43
2019-03-22T06:19:46.798Z,52.27
2019-03-22T06:24:58.634Z,61.60
2019-03-22T06:30:12.458Z,62.23
2019-03-22T06:35:25.573Z,62.30
2019-03-22T06:40:37.517Z,61.03
2019-03-22T06:45:46.220Z,52.40
2019-03-22T06:50:54.186Z,59.13
2019-03-22T06:56:02.846Z,59.77
2019-03-22T07:01:11.838Z,57.10
2019-03-22T07:06:21.778Z,55.17
2019-03-22T07:11:32.256Z,61.63
2019-03-22T07:16:42.324Z,56.07
2019-03-22T07:21:51.868Z,54.20
2019-03-22T07:27:01.236Z,52.10
2019-03-22T07:32:10.952Z,55.37
2019-03-22T07:37:26.165Z,65.23
2019-03-22T07:42:34.876Z,65.10
2019-03-22T07:47:45.375Z,58.57
2019-03-22T07:52:55.680Z,60.90
2019-03-22T07:58:10.628Z,60.13
2019-03-22T08:03:26.178Z,55.87
2019-03-22T08:08:35.844Z,60.23
2019-03-22T08:13:44.135Z,52.90
2019-03-22T08:18:51.980Z,54.00
2019-03-22T08:24:20.021Z,56.40
2019-03-22T08:29:26.072Z,55.33
2019-03-22T08:34:32.124Z,55.77
2019-03-22T08:39:38.576Z,56.00
2019-03-22T08:44:44.606Z,57.17
2019-03-22T08:49:52.042Z,55.03
2019-03-22T08:54:58.875Z,52.87
2019-03-22T09:00:07.749Z,59.43
2019-03-22T09:05:14.350Z,58.00
2019-03-22T09:10:20.213Z,59.10
2019-03-22T09:15:27.037Z,61.20
2019-03-22T09:20:33.092Z,56.23
2019-03-22T09:25:38.979Z,57.57
2019-03-22T09:30:46.332Z,62.90
2019-03-22T09:35:54.030Z,66.47
2019-03-22T09:40:59.738Z,58.30
2019-03-22T09:46:06.091Z,65.17
2019-03-22T09:51:11.868Z,60.67
2019-03-22T09:56:18.017Z,64.70
2019-03-22T10:01:24.603Z,64.93
2019-03-22T10:06:30.993Z,65.93
2019-03-22T10:11:37.619Z,70.13
2019-03-22T10:16:43.352Z,67.60
2019-03-22T10:21:49.662Z,69.90
2019-03-22T10:26:56.187Z,73.37
2019-03-22T10:32:02.367Z,65.03
2019-03-22T10:37:08.276Z,64.43
2019-03-22T10:42:14.362Z,66.60
2019-03-22T10:47:20.143Z,70.40
2019-03-22T10:52:26.369Z,69.77
2019-03-22T10:57:32.112Z,71.53
2019-03-22T11:02:38.573Z,68.13
2019-03-22T11:07:44.506Z,73.37
2019-03-22T11:12:52.280Z,65.70
2019-03-22T11:17:59.222Z,60.20
2019-03-22T11:23:05.251Z,63.60
2019-03-22T11:28:12.095Z,63.67
2019-03-22T11:33:18.216Z,68.97
2019-03-22T11:38:25.058Z,60.10
2019-03-22T11:43:30.640Z,59.67
2019-03-22T11:48:37.921Z,57.47
2019-03-22T11:53:43.617Z,59.93
2019-03-22T11:58:51.053Z,56.37
2019-03-22T12:03:57.229Z,56.17
2019-03-22T12:09:03.555Z,55.17
2019-03-22T12:14:10.921Z,56.97
2019-03-22T12:19:16.898Z,55.17
2019-03-22T12:24:23.574Z,51.80
2019-03-22T12:29:29.803Z,53.47
2019-03-22T12:34:35.745Z,55.27
2019-03-22T12:39:41.971Z,53.13
2019-03-22T12:44:48.429Z,57.40
2019-03-22T12:49:54.031Z,51.33
2019-03-22T12:54:59.742Z,52.27
2019-03-22T13:00:11.105Z,52.60
2019-03-22T13:05:17.803Z,56.30
2019-03-22T13:10:27.785Z,50.97
2019-03-22T13:15:33.403Z,57.53
2019-03-22T13:20:39.257Z,56.73
2019-03-22T13:25:45.184Z,58.63
2019-03-22T13:30:51.698Z,50.93
2019-03-22T13:35:57.564Z,51.03
2019-03-22T13:41:04.261Z,55.73
2019-03-22T13:46:12.211Z,51.83
2019-03-22T13:51:17.778Z,57.97
2019-03-22T13:56:24.125Z,53.27
2019-03-22T14:01:29.997Z,52.40
2019-03-22T14:06:35.784Z,51.63
2019-03-22T14:11:42.022Z,50.63
2019-03-22T14:16:47.827Z,48.83
2019-03-22T14:21:54.162Z,47.23
2019-03-22T14:27:00.565Z,50.87
2019-03-22T14:32:07.935Z,46.73
2019-03-22T14:37:15.449Z,50.83
2019-03-22T14:42:21.031Z,48.93
2019-03-22T14:47:27.566Z,51.77
2019-03-22T14:52:34.350Z,48.95
2019-03-22T14:57:48.111Z,50.48
2019-03-22T15:02:47.359Z,52.90
2019-03-22T15:07:53.801Z,46.88
2019-03-22T15:13:00.921Z,53.05
2019-03-22T15:18:08.365Z,51.50
2019-03-22T15:23:28.962Z,51.55
2019-03-22T15:28:47.316Z,50.52
2019-03-22T15:33:58.595Z,46.70
2019-03-22T15:39:09.875Z,49.77
2019-03-22T15:44:16.624Z,47.73
2019-03-22T15:49:22.858Z,43.80
2019-03-22T15:54:29.381Z,44.10
2019-03-22T15:59:35.333Z,44.73
2019-03-22T16:04:42.238Z,42.60
2019-03-22T16:09:48.178Z,47.35
2019-03-22T16:14:54.481Z,40.25
2019-03-22T16:20:00.252Z,39.83
2019-03-22T16:25:11.051Z,42.00
2019-03-22T16:30:18.680Z,37.95
2019-03-22T16:35:24.971Z,31.73
2019-03-22T16:40:31.152Z,37.90
2019-03-22T16:45:39.636Z,36.08
2019-03-22T16:50:46.102Z,35.50
2019-03-22T16:55:52.654Z,34.15
2019-03-22T17:01:01.036Z,33.98
2019-03-22T17:06:07.557Z,47.13
